sensor_id;sensor_type;location;lat;lon;timestamp;P1;durP1;ratioP1;P2;durP2;ratioP2
15063;SDS011;7631;52.088;5.088;2023-07-13T00:01:49;2.73;;;1.20;;
15063;SDS011;7631;52.088;5.088;2023-07-13T00:04:18;2.80;;;1.37;;
15063;SDS011;7631;52.088;5.088;2023-07-13T00:06:44;2.40;;;1.20;;
15063;SDS011;7631;52.088;5.088;2023-07-13T00:09:13;2.97;;;1.27;;
15063;SDS011;7631;52.088;5.088;2023-07-13T00:11:39;3.27;;;1.40;;
15063;SDS011;7631;52.088;5.088;2023-07-13T00:14:05;3.47;;;1.20;;
15063;SDS011;7631;52.088;5.088;2023-07-13T00:16:30;2.33;;;1.30;;
15063;SDS011;7631;52.088;5.088;2023-07-13T00:18:56;2.30;;;1.10;;
15063;SDS011;7631;52.088;5.088;2023-07-13T00:21:21;3.00;;;1.50;;
15063;SDS011;7631;52.088;5.088;2023-07-13T00:23:47;2.47;;;1.40;;
15063;SDS011;7631;52.088;5.088;2023-07-13T00:26:12;3.47;;;1.40;;
15063;SDS011;7631;52.088;5.088;2023-07-13T00:28:37;2.83;;;1.20;;
15063;SDS011;7631;52.088;5.088;2023-07-13T00:31:04;3.73;;;1.30;;
15063;SDS011;7631;52.088;5.088;2023-07-13T00:33:29;3.20;;;1.13;;
15063;SDS011;7631;52.088;5.088;2023-07-13T00:35:55;3.23;;;1.30;;
15063;SDS011;7631;52.088;5.088;2023-07-13T00:38:20;2.37;;;1.30;;
15063;SDS011;7631;52.088;5.088;2023-07-13T00:40:45;3.00;;;1.33;;
15063;SDS011;7631;52.088;5.088;2023-07-13T00:43:18;2.93;;;1.30;;
15063;SDS011;7631;52.088;5.088;2023-07-13T00:48:10;2.90;;;1.37;;
15063;SDS011;7631;52.088;5.088;2023-07-13T00:50:36;1.50;;;1.07;;
15063;SDS011;7631;52.088;5.088;2023-07-13T00:53:01;2.90;;;1.30;;
15063;SDS011;7631;52.088;5.088;2023-07-13T00:55:27;1.93;;;1.00;;
15063;SDS011;7631;52.088;5.088;2023-07-13T00:57:52;3.50;;;1.27;;
15063;SDS011;7631;52.088;5.088;2023-07-13T01:00:18;2.13;;;1.17;;
15063;SDS011;7631;52.088;5.088;2023-07-13T01:02:46;2.27;;;1.30;;
15063;SDS011;7631;52.088;5.088;2023-07-13T01:05:12;1.83;;;0.90;;
15063;SDS011;7631;52.088;5.088;2023-07-13T01:07:39;2.57;;;1.20;;
15063;SDS011;7631;52.088;5.088;2023-07-13T01:10:05;1.67;;;1.00;;
15063;SDS011;7631;52.088;5.088;2023-07-13T01:12:30;1.83;;;1.10;;
15063;SDS011;7631;52.088;5.088;2023-07-13T01:14:59;1.57;;;0.97;;
15063;SDS011;7631;52.088;5.088;2023-07-13T01:17:25;2.63;;;1.07;;
15063;SDS011;7631;52.088;5.088;2023-07-13T01:19:51;2.70;;;1.20;;
15063;SDS011;7631;52.088;5.088;2023-07-13T01:22:17;3.37;;;1.27;;
15063;SDS011;7631;52.088;5.088;2023-07-13T01:24:44;1.53;;;1.10;;
15063;SDS011;7631;52.088;5.088;2023-07-13T01:27:11;2.93;;;1.13;;
15063;SDS011;7631;52.088;5.088;2023-07-13T01:29:37;2.30;;;1.30;;
15063;SDS011;7631;52.088;5.088;2023-07-13T01:32:07;2.23;;;1.10;;
15063;SDS011;7631;52.088;5.088;2023-07-13T01:34:33;1.87;;;1.10;;
15063;SDS011;7631;52.088;5.088;2023-07-13T01:36:58;2.23;;;1.40;;
15063;SDS011;7631;52.088;5.088;2023-07-13T01:39:24;1.20;;;1.00;;
15063;SDS011;7631;52.088;5.088;2023-07-13T01:41:49;2.30;;;1.03;;
15063;SDS011;7631;52.088;5.088;2023-07-13T01:44:14;3.20;;;1.30;;
15063;SDS011;7631;52.088;5.088;2023-07-13T01:46:40;1.80;;;1.30;;
15063;SDS011;7631;52.088;5.088;2023-07-13T01:49:05;1.80;;;1.13;;
15063;SDS011;7631;52.088;5.088;2023-07-13T01:51:30;2.07;;;1.20;;
15063;SDS011;7631;52.088;5.088;2023-07-13T01:53:56;1.30;;;0.80;;
15063;SDS011;7631;52.088;5.088;2023-07-13T01:56:21;1.30;;;0.93;;
15063;SDS011;7631;52.088;5.088;2023-07-13T01:58:46;2.00;;;1.10;;
15063;SDS011;7631;52.088;5.088;2023-07-13T02:01:11;2.20;;;1.23;;
15063;SDS011;7631;52.088;5.088;2023-07-13T02:03:37;2.37;;;1.20;;
15063;SDS011;7631;52.088;5.088;2023-07-13T02:06:02;1.17;;;0.70;;
15063;SDS011;7631;52.088;5.088;2023-07-13T02:08:28;2.77;;;1.10;;
15063;SDS011;7631;52.088;5.088;2023-07-13T02:10:53;1.43;;;0.90;;
15063;SDS011;7631;52.088;5.088;2023-07-13T02:13:18;2.80;;;1.30;;
15063;SDS011;7631;52.088;5.088;2023-07-13T02:15:43;3.30;;;1.20;;
15063;SDS011;7631;52.088;5.088;2023-07-13T02:18:09;2.37;;;1.10;;
15063;SDS011;7631;52.088;5.088;2023-07-13T02:20:34;1.70;;;1.13;;
15063;SDS011;7631;52.088;5.088;2023-07-13T02:23:00;3.13;;;1.07;;
15063;SDS011;7631;52.088;5.088;2023-07-13T02:25:25;2.57;;;1.20;;
15063;SDS011;7631;52.088;5.088;2023-07-13T02:27:51;3.23;;;1.20;;
15063;SDS011;7631;52.088;5.088;2023-07-13T02:30:17;1.83;;;1.20;;
15063;SDS011;7631;52.088;5.088;2023-07-13T02:32:42;1.97;;;1.17;;
15063;SDS011;7631;52.088;5.088;2023-07-13T02:35:08;2.30;;;1.20;;
15063;SDS011;7631;52.088;5.088;2023-07-13T02:37:34;1.77;;;1.10;;
15063;SDS011;7631;52.088;5.088;2023-07-13T02:39:59;2.37;;;1.10;;
15063;SDS011;7631;52.088;5.088;2023-07-13T02:42:24;2.97;;;1.00;;
15063;SDS011;7631;52.088;5.088;2023-07-13T02:44:49;2.33;;;1.30;;
15063;SDS011;7631;52.088;5.088;2023-07-13T02:47:15;2.07;;;1.00;;
15063;SDS011;7631;52.088;5.088;2023-07-13T02:49:41;1.77;;;1.00;;
15063;SDS011;7631;52.088;5.088;2023-07-13T02:52:06;3.13;;;1.30;;
15063;SDS011;7631;52.088;5.088;2023-07-13T02:54:31;3.60;;;1.50;;
15063;SDS011;7631;52.088;5.088;2023-07-13T02:56:57;2.27;;;1.30;;
15063;SDS011;7631;52.088;5.088;2023-07-13T02:59:22;4.00;;;1.43;;
15063;SDS011;7631;52.088;5.088;2023-07-13T03:01:47;2.90;;;1.37;;
15063;SDS011;7631;52.088;5.088;2023-07-13T03:04:13;2.93;;;1.27;;
15063;SDS011;7631;52.088;5.088;2023-07-13T03:06:38;3.27;;;1.40;;
15063;SDS011;7631;52.088;5.088;2023-07-13T03:09:03;2.37;;;1.47;;
15063;SDS011;7631;52.088;5.088;2023-07-13T03:11:29;1.50;;;1.00;;
15063;SDS011;7631;52.088;5.088;2023-07-13T03:13:54;3.00;;;1.10;;
15063;SDS011;7631;52.088;5.088;2023-07-13T03:16:20;3.43;;;1.07;;
15063;SDS011;7631;52.088;5.088;2023-07-13T03:18:46;2.67;;;1.17;;
15063;SDS011;7631;52.088;5.088;2023-07-13T03:21:11;1.57;;;1.10;;
15063;SDS011;7631;52.088;5.088;2023-07-13T03:23:36;3.17;;;1.40;;
15063;SDS011;7631;52.088;5.088;2023-07-13T03:26:06;2.73;;;1.33;;
15063;SDS011;7631;52.088;5.088;2023-07-13T03:28:32;2.50;;;1.20;;
15063;SDS011;7631;52.088;5.088;2023-07-13T03:31:01;2.67;;;1.33;;
15063;SDS011;7631;52.088;5.088;2023-07-13T03:33:27;2.53;;;1.10;;
15063;SDS011;7631;52.088;5.088;2023-07-13T03:35:53;1.70;;;1.08;;
15063;SDS011;7631;52.088;5.088;2023-07-13T03:38:18;2.37;;;1.27;;
15063;SDS011;7631;52.088;5.088;2023-07-13T03:40:44;2.43;;;1.27;;
15063;SDS011;7631;52.088;5.088;2023-07-13T03:43:10;3.17;;;1.37;;
15063;SDS011;7631;52.088;5.088;2023-07-13T03:45:37;3.20;;;1.23;;
15063;SDS011;7631;52.088;5.088;2023-07-13T03:48:03;3.73;;;1.53;;
15063;SDS011;7631;52.088;5.088;2023-07-13T03:50:28;2.27;;;1.40;;
15063;SDS011;7631;52.088;5.088;2023-07-13T03:52:53;2.57;;;1.20;;
15063;SDS011;7631;52.088;5.088;2023-07-13T03:55:21;2.37;;;1.20;;
15063;SDS011;7631;52.088;5.088;2023-07-13T03:57:46;2.40;;;1.13;;
15063;SDS011;7631;52.088;5.088;2023-07-13T04:00:11;1.67;;;1.17;;
15063;SDS011;7631;52.088;5.088;2023-07-13T04:02:37;2.10;;;1.07;;
15063;SDS011;7631;52.088;5.088;2023-07-13T04:05:02;2.73;;;1.30;;
15063;SDS011;7631;52.088;5.088;2023-07-13T04:07:27;3.13;;;1.37;;
15063;SDS011;7631;52.088;5.088;2023-07-13T04:09:53;3.30;;;1.40;;
15063;SDS011;7631;52.088;5.088;2023-07-13T04:12:18;3.47;;;1.50;;
15063;SDS011;7631;52.088;5.088;2023-07-13T04:14:43;2.93;;;1.20;;
15063;SDS011;7631;52.088;5.088;2023-07-13T04:17:09;1.73;;;1.27;;
15063;SDS011;7631;52.088;5.088;2023-07-13T04:19:34;1.60;;;1.07;;
15063;SDS011;7631;52.088;5.088;2023-07-13T04:21:59;2.63;;;1.30;;
15063;SDS011;7631;52.088;5.088;2023-07-13T04:24:24;2.87;;;1.40;;
15063;SDS011;7631;52.088;5.088;2023-07-13T04:26:50;1.60;;;1.20;;
15063;SDS011;7631;52.088;5.088;2023-07-13T04:29:15;2.87;;;1.30;;
15063;SDS011;7631;52.088;5.088;2023-07-13T04:31:40;1.87;;;1.20;;
15063;SDS011;7631;52.088;5.088;2023-07-13T04:34:05;2.03;;;1.17;;
15063;SDS011;7631;52.088;5.088;2023-07-13T04:36:32;2.93;;;1.37;;
15063;SDS011;7631;52.088;5.088;2023-07-13T04:38:57;3.97;;;1.60;;
15063;SDS011;7631;52.088;5.088;2023-07-13T04:41:23;2.23;;;1.33;;
15063;SDS011;7631;52.088;5.088;2023-07-13T04:43:48;3.60;;;1.60;;
15063;SDS011;7631;52.088;5.088;2023-07-13T04:46:15;3.17;;;1.50;;
15063;SDS011;7631;52.088;5.088;2023-07-13T04:48:40;2.90;;;1.23;;
15063;SDS011;7631;52.088;5.088;2023-07-13T04:51:06;1.70;;;1.20;;
15063;SDS011;7631;52.088;5.088;2023-07-13T04:53:32;4.23;;;1.30;;
15063;SDS011;7631;52.088;5.088;2023-07-13T04:55:57;1.90;;;1.10;;
15063;SDS011;7631;52.088;5.088;2023-07-13T04:58:23;3.53;;;1.40;;
15063;SDS011;7631;52.088;5.088;2023-07-13T05:00:49;2.63;;;1.33;;
15063;SDS011;7631;52.088;5.088;2023-07-13T05:03:14;2.97;;;1.27;;
15063;SDS011;7631;52.088;5.088;2023-07-13T05:05:40;4.33;;;1.70;;
15063;SDS011;7631;52.088;5.088;2023-07-13T05:08:05;2.73;;;1.57;;
15063;SDS011;7631;52.088;5.088;2023-07-13T05:10:32;2.33;;;1.50;;
15063;SDS011;7631;52.088;5.088;2023-07-13T05:12:57;3.53;;;1.43;;
15063;SDS011;7631;52.088;5.088;2023-07-13T05:15:23;3.30;;;1.60;;
15063;SDS011;7631;52.088;5.088;2023-07-13T05:17:48;3.03;;;1.17;;
15063;SDS011;7631;52.088;5.088;2023-07-13T05:20:14;2.47;;;1.17;;
15063;SDS011;7631;52.088;5.088;2023-07-13T05:22:40;3.33;;;1.60;;
15063;SDS011;7631;52.088;5.088;2023-07-13T05:25:06;4.40;;;1.70;;
15063;SDS011;7631;52.088;5.088;2023-07-13T05:27:31;2.07;;;1.10;;
15063;SDS011;7631;52.088;5.088;2023-07-13T05:29:56;3.97;;;1.60;;
15063;SDS011;7631;52.088;5.088;2023-07-13T05:32:22;3.37;;;1.30;;
15063;SDS011;7631;52.088;5.088;2023-07-13T05:34:47;2.40;;;1.60;;
15063;SDS011;7631;52.088;5.088;2023-07-13T05:37:12;2.60;;;1.43;;
15063;SDS011;7631;52.088;5.088;2023-07-13T05:39:38;6.70;;;2.07;;
15063;SDS011;7631;52.088;5.088;2023-07-13T05:42:03;3.13;;;1.50;;
15063;SDS011;7631;52.088;5.088;2023-07-13T05:44:29;2.73;;;1.50;;
15063;SDS011;7631;52.088;5.088;2023-07-13T05:46:54;3.47;;;1.47;;
15063;SDS011;7631;52.088;5.088;2023-07-13T05:49:21;3.93;;;1.37;;
15063;SDS011;7631;52.088;5.088;2023-07-13T05:51:46;3.47;;;1.60;;
15063;SDS011;7631;52.088;5.088;2023-07-13T05:54:12;2.80;;;1.60;;
15063;SDS011;7631;52.088;5.088;2023-07-13T05:56:37;2.97;;;1.80;;
15063;SDS011;7631;52.088;5.088;2023-07-13T05:59:02;5.23;;;1.90;;
15063;SDS011;7631;52.088;5.088;2023-07-13T06:01:29;3.97;;;1.40;;
15063;SDS011;7631;52.088;5.088;2023-07-13T06:03:54;5.90;;;1.90;;
15063;SDS011;7631;52.088;5.088;2023-07-13T06:06:20;4.27;;;1.87;;
15063;SDS011;7631;52.088;5.088;2023-07-13T06:08:45;3.57;;;1.77;;
15063;SDS011;7631;52.088;5.088;2023-07-13T06:11:18;3.67;;;2.00;;
15063;SDS011;7631;52.088;5.088;2023-07-13T06:13:43;5.73;;;2.53;;
15063;SDS011;7631;52.088;5.088;2023-07-13T06:16:09;5.20;;;1.60;;
15063;SDS011;7631;52.088;5.088;2023-07-13T06:18:35;5.60;;;2.27;;
15063;SDS011;7631;52.088;5.088;2023-07-13T06:21:05;4.03;;;1.93;;
15063;SDS011;7631;52.088;5.088;2023-07-13T06:23:30;5.53;;;2.10;;
15063;SDS011;7631;52.088;5.088;2023-07-13T06:25:55;5.70;;;2.23;;
15063;SDS011;7631;52.088;5.088;2023-07-13T06:28:21;4.60;;;2.27;;
15063;SDS011;7631;52.088;5.088;2023-07-13T06:30:46;5.77;;;2.27;;
15063;SDS011;7631;52.088;5.088;2023-07-13T06:33:12;5.40;;;2.60;;
15063;SDS011;7631;52.088;5.088;2023-07-13T06:35:37;5.07;;;2.33;;
15063;SDS011;7631;52.088;5.088;2023-07-13T06:38:02;4.30;;;2.30;;
15063;SDS011;7631;52.088;5.088;2023-07-13T06:40:27;7.23;;;2.67;;
15063;SDS011;7631;52.088;5.088;2023-07-13T06:42:54;4.67;;;2.37;;
15063;SDS011;7631;52.088;5.088;2023-07-13T06:45:19;5.30;;;2.53;;
15063;SDS011;7631;52.088;5.088;2023-07-13T06:47:44;6.67;;;2.20;;
15063;SDS011;7631;52.088;5.088;2023-07-13T06:50:09;5.17;;;2.67;;
15063;SDS011;7631;52.088;5.088;2023-07-13T06:52:35;4.50;;;2.47;;
15063;SDS011;7631;52.088;5.088;2023-07-13T06:55:00;5.60;;;2.60;;
15063;SDS011;7631;52.088;5.088;2023-07-13T06:57:26;3.77;;;1.80;;
15063;SDS011;7631;52.088;5.088;2023-07-13T06:59:51;4.97;;;2.30;;
15063;SDS011;7631;52.088;5.088;2023-07-13T07:02:16;6.03;;;2.70;;
15063;SDS011;7631;52.088;5.088;2023-07-13T07:04:42;3.20;;;1.80;;
15063;SDS011;7631;52.088;5.088;2023-07-13T07:07:07;4.00;;;2.10;;
15063;SDS011;7631;52.088;5.088;2023-07-13T07:09:32;4.67;;;2.20;;
15063;SDS011;7631;52.088;5.088;2023-07-13T07:11:57;3.43;;;1.80;;
15063;SDS011;7631;52.088;5.088;2023-07-13T07:14:23;3.63;;;2.20;;
15063;SDS011;7631;52.088;5.088;2023-07-13T07:16:49;3.83;;;1.80;;
15063;SDS011;7631;52.088;5.088;2023-07-13T07:19:15;4.20;;;2.20;;
15063;SDS011;7631;52.088;5.088;2023-07-13T07:21:40;4.50;;;1.93;;
15063;SDS011;7631;52.088;5.088;2023-07-13T07:24:05;3.43;;;2.00;;
15063;SDS011;7631;52.088;5.088;2023-07-13T07:26:31;3.63;;;2.10;;
15063;SDS011;7631;52.088;5.088;2023-07-13T07:28:56;4.77;;;1.87;;
15063;SDS011;7631;52.088;5.088;2023-07-13T07:31:22;3.30;;;1.53;;
15063;SDS011;7631;52.088;5.088;2023-07-13T07:33:47;3.53;;;1.77;;
15063;SDS011;7631;52.088;5.088;2023-07-13T07:36:14;3.40;;;1.90;;
15063;SDS011;7631;52.088;5.088;2023-07-13T07:38:39;4.73;;;2.10;;
15063;SDS011;7631;52.088;5.088;2023-07-13T07:41:05;5.33;;;2.40;;
15063;SDS011;7631;52.088;5.088;2023-07-13T07:43:30;4.40;;;2.27;;
15063;SDS011;7631;52.088;5.088;2023-07-13T07:45:56;4.70;;;2.60;;
15063;SDS011;7631;52.088;5.088;2023-07-13T07:48:21;5.40;;;2.57;;
15063;SDS011;7631;52.088;5.088;2023-07-13T07:50:46;3.30;;;2.03;;
15063;SDS011;7631;52.088;5.088;2023-07-13T07:53:12;4.80;;;2.10;;
15063;SDS011;7631;52.088;5.088;2023-07-13T07:55:37;6.47;;;2.50;;
15063;SDS011;7631;52.088;5.088;2023-07-13T07:58:04;2.93;;;2.13;;
15063;SDS011;7631;52.088;5.088;2023-07-13T08:00:29;3.67;;;2.03;;
15063;SDS011;7631;52.088;5.088;2023-07-13T08:02:56;3.20;;;1.90;;
15063;SDS011;7631;52.088;5.088;2023-07-13T08:05:22;4.55;;;2.53;;
15063;SDS011;7631;52.088;5.088;2023-07-13T08:07:47;4.67;;;2.70;;
15063;SDS011;7631;52.088;5.088;2023-07-13T08:10:12;4.77;;;2.60;;
15063;SDS011;7631;52.088;5.088;2023-07-13T08:12:38;4.78;;;2.63;;
15063;SDS011;7631;52.088;5.088;2023-07-13T08:15:04;4.93;;;2.47;;
15063;SDS011;7631;52.088;5.088;2023-07-13T08:17:29;4.97;;;2.30;;
15063;SDS011;7631;52.088;5.088;2023-07-13T08:19:55;3.40;;;2.40;;
15063;SDS011;7631;52.088;5.088;2023-07-13T08:22:20;4.33;;;2.33;;
15063;SDS011;7631;52.088;5.088;2023-07-13T08:24:45;5.03;;;2.20;;
15063;SDS011;7631;52.088;5.088;2023-07-13T08:27:12;2.80;;;1.83;;
15063;SDS011;7631;52.088;5.088;2023-07-13T08:29:38;3.93;;;1.90;;
15063;SDS011;7631;52.088;5.088;2023-07-13T08:32:04;3.90;;;1.90;;
15063;SDS011;7631;52.088;5.088;2023-07-13T08:34:30;3.07;;;2.03;;
15063;SDS011;7631;52.088;5.088;2023-07-13T08:36:55;4.43;;;1.90;;
15063;SDS011;7631;52.088;5.088;2023-07-13T08:39:20;2.83;;;2.00;;
15063;SDS011;7631;52.088;5.088;2023-07-13T08:41:46;2.67;;;1.60;;
15063;SDS011;7631;52.088;5.088;2023-07-13T08:44:20;3.13;;;1.87;;
15063;SDS011;7631;52.088;5.088;2023-07-13T08:46:49;4.07;;;1.97;;
15063;SDS011;7631;52.088;5.088;2023-07-13T08:49:17;3.40;;;1.93;;
15063;SDS011;7631;52.088;5.088;2023-07-13T08:51:51;5.17;;;2.20;;
15063;SDS011;7631;52.088;5.088;2023-07-13T08:56:44;2.47;;;1.80;;
15063;SDS011;7631;52.088;5.088;2023-07-13T08:59:12;2.60;;;1.93;;
15063;SDS011;7631;52.088;5.088;2023-07-13T09:01:52;2.63;;;1.80;;
15063;SDS011;7631;52.088;5.088;2023-07-13T09:04:23;4.27;;;1.90;;
15063;SDS011;7631;52.088;5.088;2023-07-13T09:09:26;3.67;;;2.03;;
15063;SDS011;7631;52.088;5.088;2023-07-13T09:12:07;2.87;;;1.80;;
15063;SDS011;7631;52.088;5.088;2023-07-13T09:14:53;2.38;;;1.52;;
15063;SDS011;7631;52.088;5.088;2023-07-13T09:17:27;2.90;;;1.80;;
15063;SDS011;7631;52.088;5.088;2023-07-13T09:19:54;3.63;;;2.28;;
15063;SDS011;7631;52.088;5.088;2023-07-13T09:22:21;2.70;;;1.83;;
15063;SDS011;7631;52.088;5.088;2023-07-13T09:24:53;2.80;;;1.88;;
15063;SDS011;7631;52.088;5.088;2023-07-13T09:27:27;3.00;;;2.05;;
15063;SDS011;7631;52.088;5.088;2023-07-13T09:32:37;3.47;;;2.03;;
15063;SDS011;7631;52.088;5.088;2023-07-13T09:35:09;2.70;;;1.73;;
15063;SDS011;7631;52.088;5.088;2023-07-13T09:37:36;3.38;;;1.70;;
15063;SDS011;7631;52.088;5.088;2023-07-13T09:40:02;3.15;;;1.92;;
15063;SDS011;7631;52.088;5.088;2023-07-13T09:42:30;2.40;;;1.88;;
15063;SDS011;7631;52.088;5.088;2023-07-13T09:44:57;2.70;;;1.75;;
15063;SDS011;7631;52.088;5.088;2023-07-13T09:49:53;2.20;;;1.77;;
15063;SDS011;7631;52.088;5.088;2023-07-13T09:52:19;2.47;;;1.70;;
15063;SDS011;7631;52.088;5.088;2023-07-13T09:54:45;2.78;;;1.90;;
15063;SDS011;7631;52.088;5.088;2023-07-13T09:57:17;2.08;;;1.65;;
15063;SDS011;7631;52.088;5.088;2023-07-13T09:59:44;4.28;;;1.92;;
15063;SDS011;7631;52.088;5.088;2023-07-13T10:04:51;3.45;;;2.17;;
15063;SDS011;7631;52.088;5.088;2023-07-13T10:07:22;3.20;;;1.88;;
15063;SDS011;7631;52.088;5.088;2023-07-13T10:09:49;3.00;;;2.33;;
15063;SDS011;7631;52.088;5.088;2023-07-13T10:12:17;3.30;;;2.20;;
15063;SDS011;7631;52.088;5.088;2023-07-13T10:14:43;3.45;;;2.00;;
15063;SDS011;7631;52.088;5.088;2023-07-13T10:17:09;3.97;;;2.38;;
15063;SDS011;7631;52.088;5.088;2023-07-13T10:19:35;2.83;;;1.92;;
15063;SDS011;7631;52.088;5.088;2023-07-13T10:22:02;3.00;;;2.03;;
15063;SDS011;7631;52.088;5.088;2023-07-13T10:24:35;2.38;;;1.70;;
15063;SDS011;7631;52.088;5.088;2023-07-13T10:32:17;4.35;;;1.88;;
15063;SDS011;7631;52.088;5.088;2023-07-13T10:34:44;2.85;;;1.90;;
15063;SDS011;7631;52.088;5.088;2023-07-13T10:37:16;2.47;;;2.20;;
15063;SDS011;7631;52.088;5.088;2023-07-13T10:39:43;3.47;;;2.00;;
15063;SDS011;7631;52.088;5.088;2023-07-13T10:42:09;2.33;;;1.67;;
15063;SDS011;7631;52.088;5.088;2023-07-13T10:44:37;2.58;;;2.10;;
15063;SDS011;7631;52.088;5.088;2023-07-13T10:47:07;2.95;;;1.75;;
15063;SDS011;7631;52.088;5.088;2023-07-13T10:49:33;2.83;;;1.90;;
15063;SDS011;7631;52.088;5.088;2023-07-13T10:52:00;3.42;;;2.30;;
15063;SDS011;7631;52.088;5.088;2023-07-13T10:57:06;4.05;;;2.38;;
15063;SDS011;7631;52.088;5.088;2023-07-13T10:59:33;3.15;;;2.22;;
15063;SDS011;7631;52.088;5.088;2023-07-13T11:04:27;3.47;;;2.13;;
15063;SDS011;7631;52.088;5.088;2023-07-13T11:06:57;4.00;;;2.15;;
15063;SDS011;7631;52.088;5.088;2023-07-13T11:09:33;3.03;;;2.00;;
15063;SDS011;7631;52.088;5.088;2023-07-13T11:12:06;2.55;;;1.77;;
15063;SDS011;7631;52.088;5.088;2023-07-13T11:14:36;2.42;;;2.08;;
15063;SDS011;7631;52.088;5.088;2023-07-13T11:19:47;2.38;;;1.90;;
15063;SDS011;7631;52.088;5.088;2023-07-13T11:22:16;2.47;;;2.10;;
15063;SDS011;7631;52.088;5.088;2023-07-13T11:27:41;3.10;;;2.22;;
15063;SDS011;7631;52.088;5.088;2023-07-13T11:32:41;2.90;;;2.10;;
15063;SDS011;7631;52.088;5.088;2023-07-13T11:35:12;3.22;;;2.08;;
15063;SDS011;7631;52.088;5.088;2023-07-13T11:37:38;3.15;;;2.20;;
15063;SDS011;7631;52.088;5.088;2023-07-13T11:40:04;5.45;;;2.20;;
15063;SDS011;7631;52.088;5.088;2023-07-13T11:42:31;3.10;;;2.13;;
15063;SDS011;7631;52.088;5.088;2023-07-13T11:44:56;3.70;;;1.95;;
15063;SDS011;7631;52.088;5.088;2023-07-13T11:47:22;2.75;;;1.95;;
15063;SDS011;7631;52.088;5.088;2023-07-13T11:49:49;3.45;;;2.22;;
15063;SDS011;7631;52.088;5.088;2023-07-13T11:52:19;2.55;;;1.98;;
15063;SDS011;7631;52.088;5.088;2023-07-13T11:54:48;3.97;;;2.10;;
15063;SDS011;7631;52.088;5.088;2023-07-13T11:59:48;3.10;;;2.10;;
15063;SDS011;7631;52.088;5.088;2023-07-13T12:02:16;4.03;;;2.30;;
15063;SDS011;7631;52.088;5.088;2023-07-13T12:04:42;2.80;;;1.70;;
15063;SDS011;7631;52.088;5.088;2023-07-13T12:07:15;2.92;;;1.90;;
15063;SDS011;7631;52.088;5.088;2023-07-13T12:09:41;2.38;;;2.17;;
15063;SDS011;7631;52.088;5.088;2023-07-13T12:12:14;3.53;;;2.08;;
15063;SDS011;7631;52.088;5.088;2023-07-13T12:14:40;2.20;;;1.88;;
15063;SDS011;7631;52.088;5.088;2023-07-13T12:17:15;2.90;;;1.98;;
15063;SDS011;7631;52.088;5.088;2023-07-13T12:19:41;3.50;;;1.80;;
15063;SDS011;7631;52.088;5.088;2023-07-13T12:22:08;3.00;;;1.98;;
15063;SDS011;7631;52.088;5.088;2023-07-13T12:24:36;3.53;;;2.00;;
15063;SDS011;7631;52.088;5.088;2023-07-13T12:27:03;2.47;;;1.92;;
15063;SDS011;7631;52.088;5.088;2023-07-13T12:29:29;2.47;;;2.13;;
15063;SDS011;7631;52.088;5.088;2023-07-13T12:31:54;2.53;;;1.92;;
15063;SDS011;7631;52.088;5.088;2023-07-13T12:34:22;3.53;;;2.40;;
15063;SDS011;7631;52.088;5.088;2023-07-13T12:39:20;4.15;;;2.38;;
15063;SDS011;7631;52.088;5.088;2023-07-13T12:41:46;2.58;;;1.90;;
15063;SDS011;7631;52.088;5.088;2023-07-13T12:44:12;3.42;;;2.28;;
15063;SDS011;7631;52.088;5.088;2023-07-13T12:46:38;2.90;;;1.98;;
15063;SDS011;7631;52.088;5.088;2023-07-13T12:49:05;2.10;;;1.90;;
15063;SDS011;7631;52.088;5.088;2023-07-13T12:51:32;2.33;;;2.13;;
15063;SDS011;7631;52.088;5.088;2023-07-13T12:53:58;2.90;;;2.22;;
15063;SDS011;7631;52.088;5.088;2023-07-13T12:56:30;3.20;;;2.08;;
15063;SDS011;7631;52.088;5.088;2023-07-13T12:59:03;2.30;;;1.80;;
15063;SDS011;7631;52.088;5.088;2023-07-13T13:01:32;3.35;;;2.00;;
15063;SDS011;7631;52.088;5.088;2023-07-13T13:04:00;2.65;;;2.00;;
15063;SDS011;7631;52.088;5.088;2023-07-13T13:06:27;4.13;;;2.25;;
15063;SDS011;7631;52.088;5.088;2023-07-13T13:08:54;3.35;;;2.30;;
15063;SDS011;7631;52.088;5.088;2023-07-13T13:11:20;3.60;;;2.10;;
15063;SDS011;7631;52.088;5.088;2023-07-13T13:13:45;3.33;;;2.38;;
15063;SDS011;7631;52.088;5.088;2023-07-13T13:16:21;3.28;;;2.25;;
15063;SDS011;7631;52.088;5.088;2023-07-13T13:18:47;3.95;;;2.40;;
15063;SDS011;7631;52.088;5.088;2023-07-13T13:21:12;3.40;;;2.30;;
15063;SDS011;7631;52.088;5.088;2023-07-13T13:23:37;3.47;;;2.10;;
15063;SDS011;7631;52.088;5.088;2023-07-13T13:26:05;3.13;;;2.17;;
15063;SDS011;7631;52.088;5.088;2023-07-13T13:28:31;2.83;;;2.13;;
15063;SDS011;7631;52.088;5.088;2023-07-13T13:30:57;2.85;;;2.30;;
15063;SDS011;7631;52.088;5.088;2023-07-13T13:33:22;2.40;;;1.98;;
15063;SDS011;7631;52.088;5.088;2023-07-13T13:35:48;3.58;;;2.15;;
15063;SDS011;7631;52.088;5.088;2023-07-13T13:38:15;2.45;;;2.25;;
15063;SDS011;7631;52.088;5.088;2023-07-13T13:40:44;3.35;;;2.33;;
15063;SDS011;7631;52.088;5.088;2023-07-13T13:43:16;2.38;;;2.17;;
15063;SDS011;7631;52.088;5.088;2023-07-13T13:45:43;3.10;;;2.00;;
15063;SDS011;7631;52.088;5.088;2023-07-13T13:48:13;3.80;;;2.33;;
15063;SDS011;7631;52.088;5.088;2023-07-13T13:50:39;2.70;;;2.42;;
15063;SDS011;7631;52.088;5.088;2023-07-13T13:53:04;2.30;;;2.05;;
15063;SDS011;7631;52.088;5.088;2023-07-13T13:55:29;2.53;;;1.90;;
15063;SDS011;7631;52.088;5.088;2023-07-13T13:57:54;2.35;;;2.05;;
15063;SDS011;7631;52.088;5.088;2023-07-13T14:00:20;3.00;;;2.15;;
15063;SDS011;7631;52.088;5.088;2023-07-13T14:02:46;2.88;;;2.03;;
15063;SDS011;7631;52.088;5.088;2023-07-13T14:05:13;2.33;;;2.10;;
15063;SDS011;7631;52.088;5.088;2023-07-13T14:07:39;3.35;;;2.40;;
15063;SDS011;7631;52.088;5.088;2023-07-13T14:10:08;2.30;;;1.83;;
15063;SDS011;7631;52.088;5.088;2023-07-13T14:12:34;3.25;;;2.10;;
15063;SDS011;7631;52.088;5.088;2023-07-13T14:14:59;4.07;;;2.28;;
15063;SDS011;7631;52.088;5.088;2023-07-13T14:17:25;2.50;;;1.90;;
15063;SDS011;7631;52.088;5.088;2023-07-13T14:19:52;2.30;;;2.03;;
15063;SDS011;7631;52.088;5.088;2023-07-13T14:22:22;2.13;;;1.98;;
15063;SDS011;7631;52.088;5.088;2023-07-13T14:24:47;2.30;;;2.10;;
15063;SDS011;7631;52.088;5.088;2023-07-13T14:27:14;2.53;;;2.08;;
15063;SDS011;7631;52.088;5.088;2023-07-13T14:29:39;2.30;;;2.10;;
15063;SDS011;7631;52.088;5.088;2023-07-13T14:32:05;2.42;;;1.92;;
15063;SDS011;7631;52.088;5.088;2023-07-13T14:34:31;2.75;;;1.80;;
15063;SDS011;7631;52.088;5.088;2023-07-13T14:36:56;3.33;;;2.35;;
15063;SDS011;7631;52.088;5.088;2023-07-13T14:39:22;2.95;;;1.60;;
15063;SDS011;7631;52.088;5.088;2023-07-13T14:41:49;2.60;;;1.95;;
15063;SDS011;7631;52.088;5.088;2023-07-13T14:44:16;2.42;;;1.88;;
15063;SDS011;7631;52.088;5.088;2023-07-13T14:46:42;2.05;;;1.85;;
15063;SDS011;7631;52.088;5.088;2023-07-13T14:51:45;2.13;;;1.92;;
15063;SDS011;7631;52.088;5.088;2023-07-13T14:54:11;3.78;;;2.05;;
15063;SDS011;7631;52.088;5.088;2023-07-13T14:56:36;1.90;;;1.67;;
15063;SDS011;7631;52.088;5.088;2023-07-13T14:59:02;2.47;;;1.85;;
15063;SDS011;7631;52.088;5.088;2023-07-13T15:01:27;2.78;;;1.67;;
15063;SDS011;7631;52.088;5.088;2023-07-13T15:03:53;3.17;;;1.92;;
15063;SDS011;7631;52.088;5.088;2023-07-13T15:06:18;2.88;;;1.95;;
15063;SDS011;7631;52.088;5.088;2023-07-13T15:08:44;3.58;;;1.65;;
15063;SDS011;7631;52.088;5.088;2023-07-13T15:11:10;2.88;;;2.10;;
15063;SDS011;7631;52.088;5.088;2023-07-13T15:13:38;2.50;;;1.73;;
15063;SDS011;7631;52.088;5.088;2023-07-13T15:16:04;2.00;;;1.80;;
15063;SDS011;7631;52.088;5.088;2023-07-13T15:18:30;2.47;;;2.00;;
15063;SDS011;7631;52.088;5.088;2023-07-13T15:20:56;2.13;;;1.92;;
15063;SDS011;7631;52.088;5.088;2023-07-13T15:23:23;3.70;;;1.98;;
15063;SDS011;7631;52.088;5.088;2023-07-13T15:25:48;2.28;;;1.92;;
15063;SDS011;7631;52.088;5.088;2023-07-13T15:28:14;3.75;;;2.00;;
15063;SDS011;7631;52.088;5.088;2023-07-13T15:30:47;2.40;;;2.10;;
15063;SDS011;7631;52.088;5.088;2023-07-13T15:33:23;3.25;;;2.13;;
15063;SDS011;7631;52.088;5.088;2023-07-13T15:35:49;2.13;;;1.80;;
15063;SDS011;7631;52.088;5.088;2023-07-13T15:38:20;1.92;;;1.73;;